Terminal Aerodrome Forecast
Issued by NWS

Home | Current Version | Previous Version | Text Only | Print | Product List | Glossary Off
Versions: 1 2 3 4 5 6 7 8 9 10 11 12 13 14 15 16 17 18 19 20 21 22 23 24 25 26 27 28 29 30 31 32 33 34 35 36 37

000
FTUS43 KGRB 181700
TAFRHI
TAF
KRHI 181720Z 1818/1918 10012KT P6SM SCT200
     FM190100 12007KT P6SM BKN150
     FM190800 13007KT P6SM OVC060 WS012/14040KT
     FM191400 13011G16KT P6SM BKN060 OVC100
      TEMPO 1914/1918 -SHRA OVC060=

USA.gov is the U.S. government's official web portal to all federal, state and local government web resources and services.